Time;durP1;ratioP1;P1;durP2;ratioP2;P2;SDS_P1;SDS_P2;PMS_P1;PMS_P2;Temp;Humidity;BMP_temperature;BMP_pressure;BME280_temperature;BME280_humidity;BME280_pressure;Samples;Min_cycle;Max_cycle;Signal;HPM_P1;HPM_P2
2022/04/15 00:01:23;;;;;;;2.03;1.80;;;;;;;20.77;48.54;102307.75;5017603;28;20079;-72
2022/04/15 00:03:50;;;;;;;1.90;1.70;;;;;;;20.78;48.60;102308.56;5017261;28;20030;-71
2022/04/15 00:06:16;;;;;;;2.05;1.70;;;;;;;20.78;48.68;102311.34;5017750;28;20037;-71
2022/04/15 00:08:42;;;;;;;1.98;1.83;;;;;;;20.77;48.41;102312.41;5016154;28;20037;-72
2022/04/15 00:11:07;;;;;;;2.00;1.80;;;;;;;20.76;48.39;102314.34;5017404;28;20034;-72
2022/04/15 00:13:33;;;;;;;2.10;1.90;;;;;;;20.76;48.33;102308.81;5017345;28;20041;-71
2022/04/15 00:15:59;;;;;;;1.90;1.80;;;;;;;;;;5017413;28;20406;-71
2022/04/15 00:18:24;;;;;;;1.80;1.70;;;;;;;20.75;48.30;102306.31;5017084;28;20042;-71
2022/04/15 00:20:54;;;;;;;1.90;1.80;;;;;;;20.74;48.12;102299.94;5017394;28;20033;-71
2022/04/15 00:23:22;;;;;;;2.00;1.80;;;;;;;20.73;48.48;102298.28;5017619;28;20029;-72
2022/04/15 00:25:48;;;;;;;1.75;1.65;;;;;;;20.74;48.35;102305.47;5017286;28;20063;-72
2022/04/15 00:28:14;;;;;;;2.08;1.88;;;;;;;20.73;48.37;102303.81;5017266;28;20557;-72
2022/04/15 00:30:39;;;;;;;1.67;1.58;;;;;;;20.72;48.22;102304.88;5017796;28;20105;-72
2022/04/15 00:33:05;;;;;;;2.25;1.70;;;;;;;20.74;48.29;102318.44;5016132;28;20474;-72
2022/04/15 00:35:30;;;;;;;1.70;1.60;;;;;;;20.72;48.14;102309.56;5015977;28;20466;-72
2022/04/15 00:37:56;;;;;;;2.42;1.90;;;;;;;20.71;48.45;102325.28;5017057;28;20080;-72
2022/04/15 00:40:21;;;;;;;2.10;1.90;;;;;;;20.72;48.31;102326.13;4999659;28;20113;-72
2022/04/15 00:42:47;;;;;;;2.05;1.80;;;;;;;20.71;48.21;102328.03;5017091;28;20466;-71
2022/04/15 00:45:12;;;;;;;1.90;1.80;;;;;;;20.70;48.43;102322.75;5017022;28;20465;-71
2022/04/15 00:47:51;;;;;;;1.80;1.70;;;;;;;20.72;48.29;102326.94;5016982;28;20034;-71
2022/04/15 00:50:22;;;;;;;1.60;1.50;;;;;;;20.69;48.21;102330.22;5016104;28;20098;-71
2022/04/15 00:52:49;;;;;;;2.08;1.88;;;;;;;20.71;48.34;102324.44;5017521;28;20103;-71
2022/04/15 00:55:16;;;;;;;2.17;2.00;;;;;;;20.70;48.21;102325.53;5016915;28;20041;-71
2022/04/15 00:57:45;;;;;;;2.80;2.00;;;;;;;20.67;48.12;102330.47;5017102;28;20523;-72
2022/04/15 01:00:13;;;;;;;2.10;1.90;;;;;;;20.68;48.16;102329.38;5017601;28;20058;-72
2022/04/15 01:02:39;;;;;;;1.90;1.80;;;;;;;20.68;48.14;102331.28;5016819;28;20037;-72
2022/04/15 01:05:07;;;;;;;1.90;1.80;;;;;;;20.67;48.19;102329.63;5016820;28;20038;-72
2022/04/15 01:07:35;;;;;;;1.98;1.77;;;;;;;20.67;48.15;102333.22;5012797;28;20489;-72
2022/04/15 01:10:04;;;;;;;1.80;1.70;;;;;;;20.66;48.23;102327.94;5013526;28;20038;-72
2022/04/15 01:12:31;;;;;;;1.75;1.65;;;;;;;20.66;47.99;102328.78;5013455;28;20026;-72
2022/04/15 01:15:02;;;;;;;2.13;1.92;;;;;;;20.66;48.14;102328.78;5013769;28;20033;-72
2022/04/15 01:17:28;;;;;;;1.95;1.83;;;;;;;20.65;48.15;102329.00;5013740;28;20026;-72
2022/04/15 01:19:55;;;;;;;1.83;1.73;;;;;;;20.66;47.94;102336.22;5012457;28;20037;-72
2022/04/15 01:22:24;;;;;;;2.40;2.20;;;;;;;20.65;48.14;102329.84;5013370;28;20045;-72
2022/04/15 01:24:50;;;;;;;1.67;1.58;;;;;;;20.66;47.74;102338.97;5013795;28;20379;-72
2022/04/15 01:27:32;;;;;;;1.70;1.60;;;;;;;20.65;48.23;102340.88;5012971;28;20041;-72
2022/04/15 01:29:57;;;;;;;2.00;1.90;;;;;;;20.65;48.03;102346.41;5013291;28;20026;-72
2022/04/15 01:32:22;;;;;;;1.80;1.70;;;;;;;20.64;47.78;102346.63;5012004;28;20041;-72
2022/04/15 01:34:48;;;;;;;2.45;2.25;;;;;;;20.65;48.05;102353.81;5013177;28;20069;-72
2022/04/15 01:37:16;;;;;;;1.70;1.60;;;;;;;20.63;47.95;102345.78;5013046;28;20030;-70
2022/04/15 01:39:43;;;;;;;1.92;1.83;;;;;;;20.60;48.10;102340.75;5013317;28;20061;-70
2022/04/15 01:42:13;;;;;;;1.95;1.83;;;;;;;20.63;48.02;102347.72;5013082;28;20462;-71
2022/04/15 01:44:40;;;;;;;1.90;1.80;;;;;;;20.64;48.07;102343.88;5012676;28;20487;-70
2022/04/15 01:47:05;;;;;;;1.90;1.80;;;;;;;20.61;47.74;102341.59;5012943;28;20034;-70
2022/04/15 01:49:31;;;;;;;2.05;1.95;;;;;;;20.61;47.79;102347.97;5012232;28;20481;-70
2022/04/15 01:51:56;;;;;;;2.00;1.90;;;;;;;20.62;47.81;102351.53;5012851;28;20141;-70
2022/04/15 01:54:22;;;;;;;2.30;2.10;;;;;;;20.62;47.66;102352.38;5012899;28;20034;-71
2022/04/15 01:56:47;;;;;;;2.00;1.90;;;;;;;20.62;47.93;102348.78;5012916;28;20041;-71
2022/04/15 01:59:12;;;;;;;1.90;1.80;;;;;;;20.60;47.63;102351.78;5012542;28;20054;-71
2022/04/15 02:01:38;;;;;;;2.10;2.00;;;;;;;20.60;47.78;102350.97;5013085;28;20038;-71
2022/04/15 02:04:03;;;;;;;1.90;1.80;;;;;;;20.60;47.80;102349.03;5012782;28;20397;-71
2022/04/15 02:06:28;;;;;;;2.00;1.90;;;;;;;20.60;47.97;102348.22;5012650;28;20163;-73
2022/04/15 02:08:54;;;;;;;2.22;2.03;;;;;;;20.60;47.70;102351.78;5012839;28;20041;-72
2022/04/15 02:11:19;;;;;;;1.90;1.73;;;;;;;20.59;47.92;102352.88;5013169;28;20034;-72
2022/04/15 02:13:44;;;;;;;2.00;1.88;;;;;;;20.61;47.90;102358.13;5012567;28;20030;-72
2022/04/15 02:16:10;;;;;;;2.13;1.83;;;;;;;20.60;47.61;102360.06;4995027;28;20049;-72
2022/04/15 02:18:36;;;;;;;2.00;1.90;;;;;;;20.60;47.64;102362.00;5011730;28;20062;-72
2022/04/15 02:21:01;;;;;;;2.28;2.08;;;;;;;20.60;47.51;102373.03;5012465;28;20055;-73
2022/04/15 02:23:27;;;;;;;1.83;1.73;;;;;;;20.60;47.61;102375.78;5012155;28;20081;-73
2022/04/15 02:25:52;;;;;;;1.77;1.67;;;;;;;20.58;47.72;102367.75;5012403;28;20082;-72
2022/04/15 02:28:18;;;;;;;2.00;1.90;;;;;;;20.57;47.46;102371.59;5011238;28;20030;-72
2022/04/15 02:30:47;;;;;;;2.00;1.90;;;;;;;20.57;47.63;102374.34;5011401;28;20036;-72
2022/04/15 02:33:13;;;;;;;2.17;2.08;;;;;;;20.58;47.49;102375.19;5012246;28;20457;-72
2022/04/15 02:35:38;;;;;;;2.00;1.80;;;;;;;20.57;47.70;102379.88;5012284;28;20064;-72
2022/04/15 02:38:04;;;;;;;2.20;2.00;;;;;;;20.59;47.28;102379.63;5012361;28;20113;-73
2022/04/15 02:40:29;;;;;;;1.90;1.80;;;;;;;20.56;47.54;102380.94;5011288;28;20029;-72
2022/04/15 02:42:54;;;;;;;1.98;1.88;;;;;;;20.56;47.49;102378.19;5012159;28;20038;-72
2022/04/15 02:45:21;;;;;;;1.83;1.73;;;;;;;20.56;47.24;102386.44;5012669;28;20030;-72
2022/04/15 02:47:47;;;;;;;1.95;1.80;;;;;;;20.56;47.43;102378.19;5010814;28;20493;-72
2022/04/15 02:50:13;;;;;;;2.17;2.05;;;;;;;20.55;47.37;102376.53;5011702;28;20034;-73
2022/04/15 02:52:38;;;;;;;2.00;1.90;;;;;;;20.56;47.55;102385.63;5010712;28;20190;-72
2022/04/15 02:55:04;;;;;;;2.15;2.05;;;;;;;20.55;47.25;102383.94;5012225;28;20488;-72
2022/04/15 02:57:29;;;;;;;2.05;1.90;;;;;;;20.56;47.56;102380.09;5011979;28;20484;-72
2022/04/15 02:59:55;;;;;;;2.40;2.20;;;;;;;20.55;47.58;102378.44;5011318;28;20517;-72
2022/04/15 03:02:20;;;;;;;1.95;1.80;;;;;;;20.55;47.42;102381.19;5011784;28;20124;-72
2022/04/15 03:04:46;;;;;;;2.00;1.90;;;;;;;20.54;47.36;102380.34;5010594;28;20083;-72
2022/04/15 03:07:11;;;;;;;1.98;1.88;;;;;;;20.53;47.49;102375.91;5012023;28;20034;-72
2022/04/15 03:09:37;;;;;;;2.45;1.95;;;;;;;20.54;47.41;102371.25;5010487;28;20083;-72
2022/04/15 03:12:02;;;;;;;1.67;1.58;;;;;;;20.53;47.32;102377.84;5011905;28;20033;-72
2022/04/15 03:14:28;;;;;;;2.25;2.05;;;;;;;20.53;47.17;102380.59;4994143;28;20478;-72
2022/04/15 03:16:53;;;;;;;2.00;1.90;;;;;;;20.53;47.23;102381.44;5011406;28;20029;-72
2022/04/15 03:19:19;;;;;;;2.00;1.90;;;;;;;20.53;47.48;102375.91;5011644;28;20121;-72
2022/04/15 03:21:44;;;;;;;1.83;1.73;;;;;;;20.51;47.37;102381.69;5011479;28;20038;-72
2022/04/15 03:24:09;;;;;;;1.85;1.75;;;;;;;20.53;47.30;102377.84;5010806;28;20046;-73
2022/04/15 03:26:35;;;;;;;2.20;2.00;;;;;;;20.52;47.34;102385.25;5011227;28;20030;-72
2022/04/15 03:29:00;;;;;;;2.10;1.90;;;;;;;20.51;47.16;102378.91;5009752;28;20381;-72
2022/04/15 03:31:25;;;;;;;1.85;1.75;;;;;;;20.53;47.30;102383.38;4993909;28;20086;-73
2022/04/15 03:33:51;;;;;;;1.75;1.65;;;;;;;20.51;47.23;102380.84;5010649;28;20370;-73
2022/04/15 03:36:16;;;;;;;1.92;1.83;;;;;;;20.50;47.25;102385.50;5010511;28;20382;-73
2022/04/15 03:38:42;;;;;;;2.20;1.80;;;;;;;20.50;47.22;102384.69;5011475;28;20351;-73
2022/04/15 03:41:07;;;;;;;2.03;1.85;;;;;;;20.50;47.10;102385.50;5011325;28;20030;-73
2022/04/15 03:43:33;;;;;;;1.90;1.80;;;;;;;20.50;47.05;102385.50;5011303;28;20033;-73
2022/04/15 03:45:59;;;;;;;2.00;1.88;;;;;;;20.50;47.14;102392.94;5011259;28;20030;-73
2022/04/15 03:48:25;;;;;;;1.98;1.88;;;;;;;20.50;47.27;102395.72;5011265;28;20030;-72
2022/04/15 03:50:51;;;;;;;1.70;1.60;;;;;;;20.50;47.11;102395.72;5009981;28;20045;-72
2022/04/15 03:53:16;;;;;;;2.00;1.90;;;;;;;20.48;47.12;102393.19;5010784;28;20026;-72
2022/04/15 03:55:41;;;;;;;1.90;1.80;;;;;;;20.49;47.18;102402.28;5010859;28;20034;-71
2022/04/15 03:58:07;;;;;;;2.00;1.90;;;;;;;20.50;46.94;102395.72;5011127;28;20496;-73
2022/04/15 04:00:32;;;;;;;2.20;2.00;;;;;;;20.49;47.11;102408.66;5011531;28;20058;-73
2022/04/15 04:02:58;;;;;;;2.10;2.00;;;;;;;20.48;47.21;102404.22;5011011;28;20057;-73
2022/04/15 04:05:24;;;;;;;1.83;1.73;;;;;;;20.47;47.09;102408.06;5010759;28;20034;-73
2022/04/15 04:07:50;;;;;;;1.88;1.77;;;;;;;20.47;47.19;102408.06;5010915;28;20133;-72
2022/04/15 04:10:16;;;;;;;2.00;1.90;;;;;;;20.47;46.83;102412.75;5010086;28;20045;-73
2022/04/15 04:12:43;;;;;;;1.80;1.70;;;;;;;20.47;47.16;102413.56;5009877;28;20029;-73
2022/04/15 04:15:10;;;;;;;1.83;1.73;;;;;;;20.46;47.13;102411.06;5010899;28;20062;-73
2022/04/15 04:17:36;;;;;;;2.58;2.00;;;;;;;20.46;47.03;102414.66;5011410;28;20083;-73
2022/04/15 04:20:02;;;;;;;2.17;1.98;;;;;;;20.46;47.21;102411.91;5010134;28;20029;-73
2022/04/15 04:22:29;;;;;;;1.90;1.80;;;;;;;20.47;47.22;102418.25;5009569;28;20538;-72
2022/04/15 04:24:55;;;;;;;1.98;1.70;;;;;;;20.45;47.40;102417.69;5011312;28;20030;-72
2022/04/15 04:27:21;;;;;;;1.75;1.65;;;;;;;20.46;47.13;102424.84;5010739;28;20056;-73
2022/04/15 04:29:46;;;;;;;1.90;1.80;;;;;;;20.45;47.27;102424.00;5010430;28;20041;-72
2022/04/15 04:32:11;;;;;;;1.67;1.58;;;;;;;20.45;47.25;102425.94;5010656;28;20041;-73
2022/04/15 04:34:37;;;;;;;1.77;1.67;;;;;;;20.44;47.35;102430.59;5010635;28;20517;-73
2022/04/15 04:37:02;;;;;;;2.08;1.88;;;;;;;20.42;47.21;102421.75;5009261;28;20031;-72
2022/04/15 04:39:29;;;;;;;1.92;1.83;;;;;;;20.43;47.46;102431.69;5010350;28;20117;-73
2022/04/15 04:41:56;;;;;;;1.70;1.60;;;;;;;20.45;47.17;102434.22;5010854;28;20034;-73
2022/04/15 04:44:22;;;;;;;2.00;1.90;;;;;;;20.43;47.28;102442.72;5013961;28;20635;-73
2022/04/15 04:46:48;;;;;;;1.77;1.67;;;;;;;20.43;47.31;102447.38;5013946;28;20133;-73
2022/04/15 04:49:13;;;;;;;1.80;1.70;;;;;;;20.42;47.25;102442.97;5013902;28;20394;-73
2022/04/15 04:51:39;;;;;;;1.70;1.60;;;;;;;20.42;47.31;102448.50;5012737;28;20093;-73
2022/04/15 04:54:05;;;;;;;1.67;1.58;;;;;;;20.43;47.26;102447.38;5012527;28;20044;-73
2022/04/15 04:56:30;;;;;;;1.67;1.58;;;;;;;20.41;47.44;102453.13;5014089;28;20033;-73
2022/04/15 04:58:55;;;;;;;1.70;1.60;;;;;;;20.43;47.65;102456.50;5013797;28;20209;-73
2022/04/15 05:01:21;;;;;;;1.90;1.80;;;;;;;20.43;47.42;102458.41;5012751;28;20580;-73
2022/04/15 05:03:46;;;;;;;1.60;1.50;;;;;;;20.40;47.56;102461.66;5013404;28;20045;-73
2022/04/15 05:06:12;;;;;;;1.90;1.80;;;;;;;20.42;47.46;102470.53;5012913;28;20030;-72
2022/04/15 05:08:38;;;;;;;1.98;1.77;;;;;;;20.41;47.33;102468.84;5013534;28;20497;-73
2022/04/15 05:11:03;;;;;;;1.70;1.60;;;;;;;20.40;47.37;102475.44;5013589;28;20030;-73
2022/04/15 05:13:28;;;;;;;1.65;1.55;;;;;;;20.40;47.24;102467.16;5013478;28;20105;-73
2022/04/15 05:15:54;;;;;;;1.63;1.52;;;;;;;20.40;47.54;102483.72;5012355;28;20038;-72
2022/04/15 05:18:19;;;;;;;1.55;1.45;;;;;;;20.40;47.54;102490.03;5013489;28;20553;-73
2022/04/15 05:20:45;;;;;;;1.50;1.40;;;;;;;20.39;47.11;102482.03;5013395;28;20381;-73
2022/04/15 05:23:12;;;;;;;1.45;1.42;;;;;;;20.40;47.49;102495.56;5013363;28;20041;-73
2022/04/15 05:25:37;;;;;;;1.65;1.55;;;;;;;20.40;47.39;102498.31;5012145;28;20492;-73
2022/04/15 05:28:03;;;;;;;1.65;1.55;;;;;;;20.40;47.46;102497.50;5013890;28;20030;-73
2022/04/15 05:30:28;;;;;;;1.30;1.30;;;;;;;20.38;47.59;102506.00;5013307;28;20042;-72
2022/04/15 05:32:54;;;;;;;1.55;1.45;;;;;;;20.38;47.47;102500.50;5011738;28;20041;-72
2022/04/15 05:35:19;;;;;;;1.48;1.38;;;;;;;20.39;47.47;102513.19;5012935;28;20041;-72
2022/04/15 05:37:45;;;;;;;1.63;1.52;;;;;;;20.39;47.48;102507.69;5013110;28;20422;-72
2022/04/15 05:40:10;;;;;;;1.38;1.27;;;;;;;20.38;47.13;102511.50;5013180;28;20603;-72
2022/04/15 05:42:36;;;;;;;1.65;1.55;;;;;;;20.39;47.42;102515.09;5012819;28;20045;-72
2022/04/15 05:45:01;;;;;;;1.50;1.40;;;;;;;20.38;47.13;102521.72;5011944;28;20073;-72
2022/04/15 05:47:27;;;;;;;1.50;1.40;;;;;;;20.38;47.02;102527.22;5013464;28;20033;-72
2022/04/15 05:49:52;;;;;;;1.45;1.38;;;;;;;20.38;46.76;102532.75;5012992;28;20034;-72
2022/04/15 05:52:17;;;;;;;1.52;1.42;;;;;;;20.38;47.21;102528.06;5012339;28;20034;-65
2022/04/15 05:54:43;;;;;;;1.70;1.60;;;;;;;20.40;47.48;102533.31;5012937;28;20362;-69
2022/04/15 05:57:08;;;;;;;1.50;1.35;;;;;;;20.40;47.60;102536.91;5011735;28;20091;-70
2022/04/15 05:59:33;;;;;;;1.05;1.05;;;;;;;20.43;47.85;102541.97;5012676;28;20054;-70
2022/04/15 06:01:59;;;;;;;1.40;1.30;;;;;;;20.46;48.40;102543.38;5012614;28;20371;-66
2022/04/15 06:04:24;;;;;;;1.50;1.40;;;;;;;20.45;47.64;102550.81;5012485;28;20066;-69
2022/04/15 06:06:50;;;;;;;2.10;1.90;;;;;;;20.41;46.61;102549.63;4995122;28;20049;-69
2022/04/15 06:09:15;;;;;;;2.45;2.25;;;;;;;20.38;47.80;102558.38;5013135;28;20454;-67
2022/04/15 06:11:41;;;;;;;2.08;1.98;;;;;;;20.36;47.61;102548.66;5012925;28;20062;-69
2022/04/15 06:14:09;;;;;;;2.38;2.17;;;;;;;20.36;47.69;102559.69;5011273;28;20037;-68
2022/04/15 06:16:37;;;;;;;2.97;2.30;;;;;;;20.36;48.14;102557.78;5012508;28;20035;-69
2022/04/15 06:19:04;;;;;;;2.63;2.42;;;;;;;20.37;47.88;102562.19;5012541;28;20139;-69
2022/04/15 06:21:30;;;;;;;2.30;2.10;;;;;;;20.37;47.71;102564.13;5012479;28;20041;-69
2022/04/15 06:23:56;;;;;;;2.38;2.17;;;;;;;20.35;47.53;102563.53;5011055;28;20406;-69
2022/04/15 06:26:21;;;;;;;2.20;2.10;;;;;;;20.35;47.83;102567.13;5011147;28;20045;-68
2022/04/15 06:28:46;;;;;;;2.40;2.20;;;;;;;20.34;47.43;102570.94;5011404;28;20034;-68
2022/04/15 06:31:12;;;;;;;2.60;2.40;;;;;;;20.33;47.43;102567.38;5011716;28;20385;-68
2022/04/15 06:33:37;;;;;;;2.42;2.20;;;;;;;20.34;47.29;102570.94;5012529;28;20026;-68
2022/04/15 06:36:03;;;;;;;2.83;2.33;;;;;;;20.35;47.60;102575.41;5012736;28;20037;-68
2022/04/15 06:38:29;;;;;;;2.17;2.08;;;;;;;20.34;47.69;102579.22;5011815;28;20431;-68
2022/04/15 06:40:55;;;;;;;3.22;2.30;;;;;;;20.33;47.47;102581.16;5012678;28;20038;-68
2022/04/15 06:43:20;;;;;;;2.38;2.17;;;;;;;20.35;47.97;102585.59;5011845;28;20057;-68
2022/04/15 06:45:46;;;;;;;2.53;2.17;;;;;;;20.33;47.79;102589.41;5011838;28;20040;-68
2022/04/15 06:48:11;;;;;;;2.47;2.15;;;;;;;20.35;48.00;102593.88;5011712;28;20056;-66
2022/04/15 06:50:37;;;;;;;4.43;2.22;;;;;;;20.37;47.79;102594.44;5012054;28;20090;-68
2022/04/15 06:53:02;;;;;;;2.40;2.20;;;;;;;20.37;47.94;102598.03;5011892;28;20366;-68
2022/04/15 06:55:28;;;;;;;2.22;2.03;;;;;;;20.37;47.81;102605.47;5011708;28;20030;-68
2022/04/15 06:57:53;;;;;;;2.40;2.20;;;;;;;20.38;47.66;102596.97;5012182;28;20025;-68
2022/04/15 07:00:19;;;;;;;2.67;2.47;;;;;;;20.36;47.36;102596.38;5011766;28;20138;-68
2022/04/15 07:02:44;;;;;;;2.80;2.50;;;;;;;20.37;47.30;102595.28;5011902;28;20038;-68
2022/04/15 07:05:10;;;;;;;2.53;2.25;;;;;;;20.37;47.30;102600.78;5009761;28;20462;-68
2022/04/15 07:07:37;;;;;;;2.35;2.15;;;;;;;20.38;47.29;102601.66;5011428;28;20076;-68
2022/04/15 07:10:03;;;;;;;2.30;2.10;;;;;;;20.37;47.48;102599.97;5011258;28;20045;-68
2022/04/15 07:12:28;;;;;;;2.55;2.30;;;;;;;20.37;47.28;102595.28;5011916;28;20029;-68
2022/04/15 07:14:55;;;;;;;2.08;1.90;;;;;;;20.36;47.30;102606.53;5010459;28;20034;-68
2022/04/15 07:17:21;;;;;;;2.33;2.15;;;;;;;20.36;47.21;102606.53;5010387;28;20038;-68
2022/04/15 07:19:47;;;;;;;2.20;2.10;;;;;;;20.36;47.26;102603.78;5011597;28;20034;-68
2022/04/15 07:22:15;;;;;;;2.20;2.00;;;;;;;20.37;47.19;102613.75;5011287;28;20034;-68
2022/04/15 07:24:41;;;;;;;1.95;1.85;;;;;;;20.36;47.07;102620.31;5010611;28;20067;-68
2022/04/15 07:27:06;;;;;;;2.30;2.10;;;;;;;20.36;47.22;102614.81;5011558;28;20471;-68
2022/04/15 07:29:32;;;;;;;2.00;1.90;;;;;;;20.35;47.14;102613.16;5011058;28;20034;-68
2022/04/15 07:31:58;;;;;;;2.33;2.13;;;;;;;20.35;47.46;102625.00;5011091;28;20381;-68
2022/04/15 07:34:23;;;;;;;2.35;2.15;;;;;;;20.35;47.18;102626.94;5010017;28;20030;-68
2022/04/15 07:36:54;;;;;;;1.98;1.88;;;;;;;20.36;47.14;102626.69;5011319;28;20034;-69
2022/04/15 07:39:20;;;;;;;2.20;2.10;;;;;;;20.35;47.04;102625.00;5010732;28;20053;-68
2022/04/15 07:41:46;;;;;;;2.17;1.90;;;;;;;20.36;47.09;102625.84;5011873;28;20026;-68
2022/04/15 07:44:13;;;;;;;2.13;1.92;;;;;;;20.35;46.89;102621.44;5010121;28;20061;-69
2022/04/15 07:46:39;;;;;;;2.40;2.20;;;;;;;20.35;46.95;102625.00;5011259;28;20065;-68
2022/04/15 07:49:05;;;;;;;3.10;2.15;;;;;;;20.33;46.72;102625.25;5011144;28;20041;-68
2022/04/15 07:51:32;;;;;;;2.15;1.95;;;;;;;20.35;46.97;102632.44;5010933;28;20030;-69
2022/04/15 07:53:57;;;;;;;2.35;2.00;;;;;;;20.34;47.08;102631.59;5009947;28;20458;-68
2022/04/15 07:56:22;;;;;;;2.13;2.03;;;;;;;20.35;47.06;102625.00;4994465;28;20045;-68
2022/04/15 07:58:50;;;;;;;2.08;1.98;;;;;;;20.34;47.02;102637.09;5009969;28;20030;-68
2022/04/15 08:01:15;;;;;;;2.03;1.92;;;;;;;20.36;46.88;102634.09;5011042;28;20121;-68
2022/04/15 08:03:41;;;;;;;2.28;2.00;;;;;;;20.34;46.54;102634.34;5010406;28;20034;-68
2022/04/15 08:06:06;;;;;;;2.47;2.20;;;;;;;20.34;47.07;102639.84;5010986;28;20026;-68
2022/04/15 08:08:32;;;;;;;2.20;2.10;;;;;;;20.35;46.67;102632.44;5010938;28;20125;-69
2022/04/15 08:10:57;;;;;;;1.98;1.88;;;;;;;20.36;46.68;102634.09;5011189;28;20109;-69
2022/04/15 08:13:24;;;;;;;1.95;1.85;;;;;;;20.35;46.97;102630.53;5010770;28;20033;-68
2022/04/15 08:15:53;;;;;;;1.80;1.70;;;;;;;20.35;46.85;102630.53;5012329;28;20099;-69
2022/04/15 08:18:23;;;;;;;2.30;2.10;;;;;;;20.36;46.55;102639.63;5014897;28;20061;-68
2022/04/15 08:20:50;;;;;;;2.28;2.10;;;;;;;20.36;46.58;102642.38;5014021;28;20038;-69
2022/04/15 08:23:17;;;;;;;2.38;2.13;;;;;;;20.35;46.90;102635.22;5013496;28;20084;-68
2022/04/15 08:25:44;;;;;;;1.98;1.88;;;;;;;20.36;46.73;102634.09;5013804;28;20539;-70
2022/04/15 08:28:10;;;;;;;2.40;2.10;;;;;;;20.34;46.29;102639.84;4996706;28;20038;-68
2022/04/15 08:30:37;;;;;;;3.03;1.90;;;;;;;20.35;46.54;102635.22;5012828;28;20079;-68
2022/04/15 08:33:05;;;;;;;2.20;2.08;;;;;;;20.35;46.62;102637.97;5013998;28;20065;-69
2022/04/15 08:35:31;;;;;;;2.10;1.90;;;;;;;20.36;46.34;102636.88;5012864;28;20129;-68
2022/04/15 08:37:57;;;;;;;2.00;1.90;;;;;;;20.36;46.58;102643.25;5013333;28;20086;-68
2022/04/15 08:40:31;;;;;;;2.22;2.03;;;;;;;20.36;46.44;102642.38;5012422;28;20029;-68
2022/04/15 08:42:58;;;;;;;1.98;1.88;;;;;;;20.36;46.54;102651.50;5014003;28;20030;-68
2022/04/15 08:45:27;;;;;;;2.10;1.90;;;;;;;20.35;46.63;102652.56;5014351;28;20034;-68
2022/04/15 08:48:01;;;;;;;2.05;1.95;;;;;;;20.37;46.67;102652.34;5014730;28;20056;-68
2022/04/15 08:50:28;;;;;;;1.85;1.75;;;;;;;20.37;46.38;102655.91;5013634;28;20109;-68
2022/04/15 08:52:54;;;;;;;1.70;1.60;;;;;;;20.37;46.50;102655.91;5013702;28;20026;-69
2022/04/15 08:55:24;;;;;;;1.60;1.50;;;;;;;20.37;46.18;102655.09;5013720;28;20038;-69
2022/04/15 08:57:51;;;;;;;1.70;1.60;;;;;;;20.37;46.37;102663.38;5013959;28;20133;-68
2022/04/15 09:00:19;;;;;;;2.08;1.67;;;;;;;20.38;46.52;102665.06;5013839;28;20108;-68
2022/04/15 09:02:44;;;;;;;1.90;1.80;;;;;;;20.38;45.95;102656.78;5013584;28;20485;-68
2022/04/15 09:05:10;;;;;;;1.77;1.67;;;;;;;20.39;45.97;102658.44;5012460;28;20050;-69
2022/04/15 09:07:36;;;;;;;1.55;1.40;;;;;;;20.39;45.92;102655.69;5013349;28;20037;-68
2022/04/15 09:10:07;;;;;;;1.70;1.60;;;;;;;20.38;45.95;102663.13;5013560;28;20037;-69
2022/04/15 09:12:36;;;;;;;1.55;1.45;;;;;;;20.39;46.36;102673.09;4997069;28;20125;-68
2022/04/15 09:15:07;;;;;;;1.83;1.73;;;;;;;20.40;46.41;102671.97;5012273;28;20045;-69
2022/04/15 09:17:35;;;;;;;1.70;1.50;;;;;;;20.40;45.93;102668.41;5012565;28;20038;-68
2022/04/15 09:20:02;;;;;;;1.63;1.40;;;;;;;20.41;46.27;102667.34;5013509;28;20046;-69
2022/04/15 09:22:27;;;;;;;1.58;1.48;;;;;;;20.40;46.28;102666.47;5013150;28;20523;-69
2022/04/15 09:24:52;;;;;;;1.63;1.52;;;;;;;20.43;46.00;102674.28;5013634;28;20034;-69
2022/04/15 09:27:20;;;;;;;1.50;1.40;;;;;;;20.44;45.84;102680.63;5028822;28;20041;-68
2022/04/15 09:29:46;;;;;;;1.67;1.33;;;;;;;20.43;45.81;102671.53;5012855;28;20037;-68
2022/04/15 09:32:15;;;;;;;1.67;1.58;;;;;;;20.44;45.64;102675.94;5013451;28;20034;-68
2022/04/15 09:35:05;;;;;;;1.48;1.40;;;;;;;20.45;45.65;102669.38;5012951;28;20038;-68
2022/04/15 09:37:42;;;;;;;1.50;1.40;;;;;;;20.46;45.96;102676.56;5013082;28;20030;-68
2022/04/15 09:40:26;;;;;;;1.50;1.40;;;;;;;20.45;45.14;102683.16;5013170;28;20022;-68
2022/04/15 09:42:52;;;;;;;1.23;1.23;;;;;;;20.46;45.51;102675.72;5013578;28;20038;-68
2022/04/15 09:45:26;;;;;;;1.42;1.33;;;;;;;20.47;45.38;102675.47;5012962;28;20038;-68
2022/04/15 09:47:54;;;;;;;1.50;1.40;;;;;;;20.48;45.26;102685.44;5013068;28;20108;-69
2022/04/15 09:50:43;;;;;;;1.65;1.55;;;;;;;20.51;45.77;102681.38;5013285;28;20065;-66
2022/04/15 09:53:12;;;;;;;1.27;1.20;;;;;;;20.51;46.91;102678.63;5012652;28;20029;-68
2022/04/15 09:55:40;;;;;;;1.63;1.52;;;;;;;20.51;46.24;102682.19;5013490;28;20029;-69
2022/04/15 09:58:13;;;;;;;1.15;1.10;;;;;;;20.53;46.20;102681.13;5012582;28;20416;-69
2022/04/15 10:00:41;;;;;;;1.70;1.60;;;;;;;20.52;45.99;102685.78;5013187;28;20470;-69
2022/04/15 10:03:12;;;;;;;1.20;1.10;;;;;;;20.53;46.29;102675.63;5011641;28;20034;-68
2022/04/15 10:05:38;;;;;;;1.17;1.10;;;;;;;20.54;46.25;102688.34;5011550;28;20099;-69
2022/04/15 10:08:05;;;;;;;1.13;1.10;;;;;;;20.54;46.07;102680.06;5012934;28;20050;-69
2022/04/15 10:10:31;;;;;;;1.30;1.30;;;;;;;20.55;46.32;102685.34;5012315;28;20554;-69
2022/04/15 10:13:02;;;;;;;1.30;1.20;;;;;;;20.56;46.10;102678.72;5012581;28;20025;-69
2022/04/15 10:15:29;;;;;;;1.40;1.30;;;;;;;20.56;46.17;102673.22;5012449;28;20038;-69
2022/04/15 10:17:56;;;;;;;1.35;1.23;;;;;;;20.55;46.14;102674.31;5011407;28;20032;-69
2022/04/15 10:20:22;;;;;;;1.20;1.02;;;;;;;20.58;46.02;102681.25;5011378;28;20037;-69
2022/04/15 10:22:48;;;;;;;1.17;1.08;;;;;;;20.58;46.21;102676.59;5011761;28;20034;-69
2022/04/15 10:25:14;;;;;;;1.23;1.20;;;;;;;20.60;46.28;102673.59;5011323;28;20053;-69
2022/04/15 10:27:39;;;;;;;1.42;1.25;;;;;;;20.59;46.22;102677.41;5011303;28;20099;-69
2022/04/15 10:30:18;;;;;;;1.40;1.30;;;;;;;20.62;46.28;102668.66;5012416;28;20034;-69
2022/04/15 10:32:53;;;;;;;1.08;1.08;;;;;;;20.60;46.22;102671.66;5012169;28;20026;-69
2022/04/15 10:35:21;;;;;;;1.13;1.10;;;;;;;20.61;46.20;102664.22;5012274;28;20029;-69
2022/04/15 10:37:53;;;;;;;2.03;1.08;;;;;;;20.60;46.28;102668.91;5012141;28;20541;-69
2022/04/15 10:40:36;;;;;;;1.73;1.15;;;;;;;20.62;46.07;102661.22;5010184;28;20033;-69
2022/04/15 10:43:18;;;;;;;1.75;1.20;;;;;;;20.63;45.94;102660.16;5012182;28;20478;-69
2022/04/15 10:45:44;;;;;;;1.17;1.08;;;;;;;20.63;46.04;102656.56;5011742;28;20026;-69
2022/04/15 10:48:09;;;;;;;1.10;1.00;;;;;;;20.64;45.93;102656.31;5012664;28;20041;-68
2022/04/15 10:50:35;;;;;;;0.98;0.98;;;;;;;20.65;45.99;102658.00;5012145;28;20531;-68
2022/04/15 10:53:26;;;;;;;0.93;0.93;;;;;;;20.68;46.46;102654.78;5010814;28;20367;-69
2022/04/15 10:55:56;;;;;;;1.30;1.20;;;;;;;20.68;46.11;102657.56;5012013;28;20033;-70
2022/04/15 10:58:22;;;;;;;1.08;1.08;;;;;;;20.68;46.02;102663.06;5012260;28;20057;-69
2022/04/15 11:01:19;;;;;;;0.90;0.90;;;;;;;20.71;46.11;102656.22;5011868;28;20473;-69
2022/04/15 11:03:56;;;;;;;0.95;0.95;;;;;;;20.70;46.46;102660.06;5011884;28;20095;-70
2022/04/15 11:06:28;;;;;;;0.90;0.90;;;;;;;20.68;46.32;102649.28;5011895;28;20132;-70
2022/04/15 11:08:54;;;;;;;1.35;1.23;;;;;;;20.70;46.42;102653.69;5010543;28;20042;-70
2022/04/15 11:11:41;;;;;;;1.00;1.00;;;;;;;20.73;46.38;102651.31;5011540;28;20037;-70
2022/04/15 11:14:13;;;;;;;1.13;1.10;;;;;;;20.71;46.18;102653.47;5026887;28;20030;-71
2022/04/15 11:16:54;;;;;;;1.00;0.90;;;;;;;20.73;46.28;102645.81;5012342;28;20072;-70
2022/04/15 11:19:26;;;;;;;1.15;1.05;;;;;;;20.74;46.61;102655.72;5010071;28;20034;-75
2022/04/15 11:21:53;;;;;;;1.20;1.10;;;;;;;;;;5010123;28;20041;-74
2022/04/15 11:24:23;;;;;;;1.30;1.20;;;;;;;20.77;46.76;102646.16;5010729;28;20083;-74
2022/04/15 11:26:49;;;;;;;1.17;0.95;;;;;;;20.77;46.47;102647.00;5011406;28;20069;-75